Etusivu
METAR-TAF:

METAR-TAF

Lentoasemat :

Mumbai, Intia

Leveyspiiri: 19-05-53N, Pituuspiiri: 072-50-02E, korkeus merenpinnasta: 4 m

Tämänhetkinen sää

Tämä raportti tehtiin 39 minuuttia sitten, kello 11.00 UTC
Tuuli 3 kn lännestä
Lämpötila 30°C
Kosteus 66%
Ilmanpaine 999 hPa
Näkyvyys: 3000 m
Hajanaisia pilviä 1800 ft:n korkeudessa
Muutamia pilviä 3000 ft:n korkeudessa, Cumulonimbus.
Hajonneita pilviä 10000 ft:n korkeudessa
usvaa,

METAR: VAJJ 221100Z 27003KT 3000 HZ SCT018 FEW030CB BKN100 30/23 Q0999 NOSIG

Aika: 17:09 (11:39 UTC)


TAF: puuttuu

Säähavainnot ja -ennusteet yli 4000 lentoasemalta (METAR- ja TAF-raportit).

Käytössä olevat sääasemat on merkitty karttaan keltaisilla ja punaisilla pisteillä.

Aseta hiiri pisteen päälle nähdäksesi sääaseman nimen.

Klikkaa sitten nähdäksesi säähavainnot ja -ennusteet.

Kartan vaihtaminen: klikkaa mustalla rastilla varustettuja vihreitä pisteitä, niin voit zoomata sisään; viivalla varustettua vihreää pistettä, niin voit zoomata ulos tai vihreitä nuolia, niin pääset viereisille kartoille.


METAR-TAF: